Terminal Aerodrome Forecast
Issued by NWS

Home | Current Version | Previous Version | Text Only | Print | Product List | Glossary On
Versions: 1 2 3 4 5 6 7 8 9 10 11 12 13 14
000
FTUS42 KTBW 271100
TAFPGD
TAF
KPGD 271139Z 2712/2812 05005KT P6SM SKC
     FM271400 07008KT P6SM SCT050 SCT120
     FM280000 07005KT P6SM FEW050=

USA.gov is the U.S. government's official web portal to all federal, state and local government web resources and services.